sensor_id;sensor_type;location;lat;lon;timestamp;pressure;altitude;pressure_sealevel;temperature;humidity
69624;BME280;56843;52.020;5.670;2022-08-23T00:00:48;101210.22;;;16.53;67.27
69624;BME280;56843;52.020;5.670;2022-08-23T00:02:18;101207.84;;;16.51;67.16
69624;BME280;56843;52.020;5.670;2022-08-23T00:03:49;101204.38;;;16.51;67.27
69624;BME280;56843;52.020;5.670;2022-08-23T00:05:20;101200.13;;;16.50;67.39
69624;BME280;56843;52.020;5.670;2022-08-23T00:06:53;101200.91;;;16.50;67.50
69624;BME280;56843;52.020;5.670;2022-08-23T00:08:24;101202.38;;;16.48;67.29
69624;BME280;56843;52.020;5.670;2022-08-23T00:09:54;101209.69;;;16.47;67.55
69624;BME280;56843;52.020;5.670;2022-08-23T00:11:38;101200.06;;;16.46;67.40
69624;BME280;56843;52.020;5.670;2022-08-23T00:13:08;101197.25;;;16.43;67.46
69624;BME280;56843;52.020;5.670;2022-08-23T00:14:43;101201.09;;;16.42;67.58
69624;BME280;56843;52.020;5.670;2022-08-23T00:16:14;101203.81;;;16.42;67.82
69624;BME280;56843;52.020;5.670;2022-08-23T00:17:46;101206.13;;;16.43;67.92
69624;BME280;56843;52.020;5.670;2022-08-23T00:19:18;101198.03;;;16.43;67.93
69624;BME280;56843;52.020;5.670;2022-08-23T00:20:49;101203.50;;;16.47;67.78
69624;BME280;56843;52.020;5.670;2022-08-23T00:22:19;101206.19;;;16.47;67.83
69624;BME280;56843;52.020;5.670;2022-08-23T00:23:50;101207.78;;;16.48;67.79
69624;BME280;56843;52.020;5.670;2022-08-23T00:25:21;101202.38;;;16.48;67.79
69624;BME280;56843;52.020;5.670;2022-08-23T00:26:54;101205.09;;;16.48;67.91
69624;BME280;56843;52.020;5.670;2022-08-23T00:28:26;101206.19;;;16.47;67.85
69624;BME280;56843;52.020;5.670;2022-08-23T00:29:57;101197.78;;;16.48;67.82
69624;BME280;56843;52.020;5.670;2022-08-23T00:31:27;101207.09;;;16.51;67.95
69624;BME280;56843;52.020;5.670;2022-08-23T00:32:58;101199.31;;;16.49;67.95
69624;BME280;56843;52.020;5.670;2022-08-23T00:34:28;101197.00;;;16.48;67.95
69624;BME280;56843;52.020;5.670;2022-08-23T00:35:59;101202.75;;;16.46;67.93
69624;BME280;56843;52.020;5.670;2022-08-23T00:37:31;101193.88;;;16.46;68.29
69624;BME280;56843;52.020;5.670;2022-08-23T00:39:01;101203.06;;;16.45;68.16
69624;BME280;56843;52.020;5.670;2022-08-23T00:40:32;101199.16;;;16.42;68.11
69624;BME280;56843;52.020;5.670;2022-08-23T00:42:06;101199.09;;;16.39;68.27
69624;BME280;56843;52.020;5.670;2022-08-23T00:44:00;101199.72;;;16.32;68.40
69624;BME280;56843;52.020;5.670;2022-08-23T00:47:53;101203.72;;;16.23;68.53
69624;BME280;56843;52.020;5.670;2022-08-23T00:49:24;101207.91;;;16.20;68.49
69624;BME280;56843;52.020;5.670;2022-08-23T00:51:15;101211.75;;;16.19;68.73
69624;BME280;56843;52.020;5.670;2022-08-23T00:54:29;101205.31;;;16.08;68.83
69624;BME280;56843;52.020;5.670;2022-08-23T00:56:03;101195.25;;;16.05;69.00
69624;BME280;56843;52.020;5.670;2022-08-23T00:57:35;101197.50;;;16.03;69.23
69624;BME280;56843;52.020;5.670;2022-08-23T00:59:06;101194.38;;;16.01;69.24
69624;BME280;56843;52.020;5.670;2022-08-23T01:00:37;101201.22;;;15.98;69.28
69624;BME280;56843;52.020;5.670;2022-08-23T01:02:08;101196.53;;;15.95;69.40
69624;BME280;56843;52.020;5.670;2022-08-23T01:03:41;101199.91;;;15.92;69.40
69624;BME280;56843;52.020;5.670;2022-08-23T01:05:13;101204.88;;;15.90;69.34
69624;BME280;56843;52.020;5.670;2022-08-23T01:07:06;101199.38;;;15.87;69.66
69624;BME280;56843;52.020;5.670;2022-08-23T01:08:45;101210.75;;;15.80;69.88
69624;BME280;56843;52.020;5.670;2022-08-23T01:10:24;101202.25;;;15.78;69.68
69624;BME280;56843;52.020;5.670;2022-08-23T01:12:03;101206.78;;;15.74;70.03
69624;BME280;56843;52.020;5.670;2022-08-23T01:13:40;101210.19;;;15.71;69.87
69624;BME280;56843;52.020;5.670;2022-08-23T01:15:18;101208.16;;;15.68;70.00
69624;BME280;56843;52.020;5.670;2022-08-23T01:16:58;101203.47;;;15.65;70.37
69624;BME280;56843;52.020;5.670;2022-08-23T01:18:32;101211.81;;;15.60;70.34
69624;BME280;56843;52.020;5.670;2022-08-23T01:20:08;101204.06;;;15.59;70.45
69624;BME280;56843;52.020;5.670;2022-08-23T01:21:46;101208.22;;;15.56;70.55
69624;BME280;56843;52.020;5.670;2022-08-23T01:23:36;101213.53;;;15.53;70.37
69624;BME280;56843;52.020;5.670;2022-08-23T01:25:12;101210.66;;;15.45;70.52
69624;BME280;56843;52.020;5.670;2022-08-23T01:26:46;101214.50;;;15.44;70.73
69624;BME280;56843;52.020;5.670;2022-08-23T01:28:17;101215.97;;;15.42;70.92
69624;BME280;56843;52.020;5.670;2022-08-23T01:29:48;101215.53;;;15.40;70.91
69624;BME280;56843;52.020;5.670;2022-08-23T01:31:20;101215.53;;;15.40;71.08
69624;BME280;56843;52.020;5.670;2022-08-23T01:32:58;101210.47;;;15.38;71.13
69624;BME280;56843;52.020;5.670;2022-08-23T01:34:29;101207.34;;;15.36;71.07
69624;BME280;56843;52.020;5.670;2022-08-23T01:36:01;101205.00;;;15.35;71.22
69624;BME280;56843;52.020;5.670;2022-08-23T01:37:33;101212.63;;;15.33;71.04
69624;BME280;56843;52.020;5.670;2022-08-23T01:39:04;101204.91;;;15.31;71.38
69624;BME280;56843;52.020;5.670;2022-08-23T01:40:36;101198.63;;;15.27;71.59
69624;BME280;56843;52.020;5.670;2022-08-23T01:42:08;101200.88;;;15.25;71.50
69624;BME280;56843;52.020;5.670;2022-08-23T01:43:40;101202.72;;;15.21;71.82
69624;BME280;56843;52.020;5.670;2022-08-23T01:45:12;101198.00;;;15.18;71.77
69624;BME280;56843;52.020;5.670;2022-08-23T01:46:45;101200.69;;;15.18;71.87
69624;BME280;56843;52.020;5.670;2022-08-23T01:48:17;101204.09;;;15.15;72.15
69624;BME280;56843;52.020;5.670;2022-08-23T01:49:48;101200.16;;;15.13;72.07
69624;BME280;56843;52.020;5.670;2022-08-23T01:51:20;101196.25;;;15.10;72.32
69624;BME280;56843;52.020;5.670;2022-08-23T01:52:51;101199.72;;;15.11;72.34
69624;BME280;56843;52.020;5.670;2022-08-23T01:54:24;101199.28;;;15.09;72.34
69624;BME280;56843;52.020;5.670;2022-08-23T01:55:54;101193.47;;;15.07;72.57
69624;BME280;56843;52.020;5.670;2022-08-23T01:57:25;101199.97;;;15.06;72.55
69624;BME280;56843;52.020;5.670;2022-08-23T01:58:57;101198.41;;;15.05;72.42
69624;BME280;56843;52.020;5.670;2022-08-23T02:00:36;101201.00;;;15.01;72.69
69624;BME280;56843;52.020;5.670;2022-08-23T02:02:07;101213.66;;;15.01;72.70
69624;BME280;56843;52.020;5.670;2022-08-23T02:03:37;101205.13;;;14.99;72.76
69624;BME280;56843;52.020;5.670;2022-08-23T02:05:08;101195.50;;;14.98;72.83
69624;BME280;56843;52.020;5.670;2022-08-23T02:06:39;101202.34;;;14.95;72.94
69624;BME280;56843;52.020;5.670;2022-08-23T02:08:11;101211.97;;;14.96;73.29
69624;BME280;56843;52.020;5.670;2022-08-23T02:10:05;101204.16;;;14.91;73.36
69624;BME280;56843;52.020;5.670;2022-08-23T02:11:40;101198.78;;;14.91;73.37
69624;BME280;56843;52.020;5.670;2022-08-23T02:13:11;101204.47;;;14.90;73.47
69624;BME280;56843;52.020;5.670;2022-08-23T02:14:42;101205.25;;;14.90;73.35
69624;BME280;56843;52.020;5.670;2022-08-23T02:16:46;101206.06;;;14.91;73.36
69624;BME280;56843;52.020;5.670;2022-08-23T02:18:19;101205.63;;;14.89;73.12
69624;BME280;56843;52.020;5.670;2022-08-23T02:19:50;101212.22;;;14.91;73.26
69624;BME280;56843;52.020;5.670;2022-08-23T02:21:21;101197.63;;;14.92;73.23
69624;BME280;56843;52.020;5.670;2022-08-23T02:22:51;101204.25;;;14.95;73.42
69624;BME280;56843;52.020;5.670;2022-08-23T02:24:23;101200.09;;;14.97;72.94
69624;BME280;56843;52.020;5.670;2022-08-23T02:25:54;101199.44;;;15.00;73.12
69624;BME280;56843;52.020;5.670;2022-08-23T02:27:25;101196.41;;;15.02;73.15
69624;BME280;56843;52.020;5.670;2022-08-23T02:28:56;101198.41;;;15.05;72.90
69624;BME280;56843;52.020;5.670;2022-08-23T02:30:26;101196.94;;;15.07;72.90
69624;BME280;56843;52.020;5.670;2022-08-23T02:31:57;101194.72;;;15.09;72.94
69624;BME280;56843;52.020;5.670;2022-08-23T02:33:28;101197.47;;;15.13;72.84
69624;BME280;56843;52.020;5.670;2022-08-23T02:34:59;101196.03;;;15.15;72.74
69624;BME280;56843;52.020;5.670;2022-08-23T02:36:29;101199.94;;;15.18;72.57
69624;BME280;56843;52.020;5.670;2022-08-23T02:38:10;101199.66;;;15.23;72.75
69624;BME280;56843;52.020;5.670;2022-08-23T02:39:41;101206.63;;;15.24;72.70
69624;BME280;56843;52.020;5.670;2022-08-23T02:41:13;101206.38;;;15.29;72.47
69624;BME280;56843;52.020;5.670;2022-08-23T02:42:44;101204.56;;;15.33;72.32
69624;BME280;56843;52.020;5.670;2022-08-23T02:44:15;101195.47;;;15.37;72.40
69624;BME280;56843;52.020;5.670;2022-08-23T02:45:45;101202.50;;;15.42;72.44
69624;BME280;56843;52.020;5.670;2022-08-23T02:47:17;101211.78;;;15.44;72.42
69624;BME280;56843;52.020;5.670;2022-08-23T02:48:56;101207.28;;;15.49;72.53
69624;BME280;56843;52.020;5.670;2022-08-23T02:50:27;101205.81;;;15.51;72.14
69624;BME280;56843;52.020;5.670;2022-08-23T02:51:58;101213.19;;;15.54;72.36
69624;BME280;56843;52.020;5.670;2022-08-23T02:53:29;101212.84;;;15.56;72.22
69624;BME280;56843;52.020;5.670;2022-08-23T02:55:00;101213.28;;;15.58;72.40
69624;BME280;56843;52.020;5.670;2022-08-23T02:56:31;101216.41;;;15.60;72.29
69624;BME280;56843;52.020;5.670;2022-08-23T02:58:02;101208.00;;;15.61;72.13
69624;BME280;56843;52.020;5.670;2022-08-23T02:59:34;101211.13;;;15.63;72.25
69624;BME280;56843;52.020;5.670;2022-08-23T03:01:05;101209.63;;;15.66;71.88
69624;BME280;56843;52.020;5.670;2022-08-23T03:02:43;101212.78;;;15.68;72.15
69624;BME280;56843;52.020;5.670;2022-08-23T03:04:14;101216.69;;;15.70;71.68
69624;BME280;56843;52.020;5.670;2022-08-23T03:05:45;101209.03;;;15.72;71.86
69624;BME280;56843;52.020;5.670;2022-08-23T03:07:16;101216.00;;;15.73;71.90
69624;BME280;56843;52.020;5.670;2022-08-23T03:08:47;101214.06;;;15.74;71.77
69624;BME280;56843;52.020;5.670;2022-08-23T03:10:18;101214.50;;;15.76;71.90
69624;BME280;56843;52.020;5.670;2022-08-23T03:11:57;101219.13;;;15.75;71.69
69624;BME280;56843;52.020;5.670;2022-08-23T03:13:27;101210.69;;;15.77;71.77
69624;BME280;56843;52.020;5.670;2022-08-23T03:14:58;101216.06;;;15.77;71.92
69624;BME280;56843;52.020;5.670;2022-08-23T03:16:29;101220.34;;;15.78;71.85
69624;BME280;56843;52.020;5.670;2022-08-23T03:17:59;101211.91;;;15.79;71.49
69624;BME280;56843;52.020;5.670;2022-08-23T03:19:30;101218.09;;;15.80;71.67
69624;BME280;56843;52.020;5.670;2022-08-23T03:21:03;101215.47;;;15.83;71.50
69624;BME280;56843;52.020;5.670;2022-08-23T03:22:34;101220.19;;;15.86;71.55
69624;BME280;56843;52.020;5.670;2022-08-23T03:24:05;101219.47;;;15.89;71.61
69624;BME280;56843;52.020;5.670;2022-08-23T03:25:36;101221.47;;;15.92;71.26
69624;BME280;56843;52.020;5.670;2022-08-23T03:27:28;101218.41;;;15.94;71.22
69624;BME280;56843;52.020;5.670;2022-08-23T03:29:00;101219.28;;;15.98;71.16
69624;BME280;56843;52.020;5.670;2022-08-23T03:30:36;101222.44;;;16.00;71.21
69624;BME280;56843;52.020;5.670;2022-08-23T03:32:08;101215.94;;;16.01;71.37
69624;BME280;56843;52.020;5.670;2022-08-23T03:33:41;101217.50;;;16.02;71.06
69624;BME280;56843;52.020;5.670;2022-08-23T03:35:11;101222.53;;;16.03;71.14
69624;BME280;56843;52.020;5.670;2022-08-23T03:36:43;101216.03;;;16.04;71.50
69624;BME280;56843;52.020;5.670;2022-08-23T03:38:14;101216.47;;;16.06;71.02
69624;BME280;56843;52.020;5.670;2022-08-23T03:39:46;101226.88;;;16.08;71.00
69624;BME280;56843;52.020;5.670;2022-08-23T03:41:17;101227.66;;;16.08;71.49
69624;BME280;56843;52.020;5.670;2022-08-23T03:42:49;101221.13;;;16.09;71.26
69624;BME280;56843;52.020;5.670;2022-08-23T03:44:22;101220.34;;;16.09;71.11
69624;BME280;56843;52.020;5.670;2022-08-23T03:45:53;101226.09;;;16.07;71.06
69624;BME280;56843;52.020;5.670;2022-08-23T03:47:24;101220.72;;;16.07;70.86
69624;BME280;56843;52.020;5.670;2022-08-23T03:48:57;101226.09;;;16.07;70.94
69624;BME280;56843;52.020;5.670;2022-08-23T03:50:29;101219.47;;;16.05;71.38
69624;BME280;56843;52.020;5.670;2022-08-23T03:52:00;101226.34;;;16.02;71.23
69624;BME280;56843;52.020;5.670;2022-08-23T03:53:32;101227.81;;;16.00;71.46
69624;BME280;56843;52.020;5.670;2022-08-23T03:55:03;101234.31;;;15.99;71.46
69624;BME280;56843;52.020;5.670;2022-08-23T03:56:43;101228.88;;;15.95;71.72
69624;BME280;56843;52.020;5.670;2022-08-23T03:58:19;101231.47;;;15.92;71.86
69624;BME280;56843;52.020;5.670;2022-08-23T03:59:50;101229.47;;;15.89;71.90
69624;BME280;56843;52.020;5.670;2022-08-23T04:01:21;101224.41;;;15.87;72.02
69624;BME280;56843;52.020;5.670;2022-08-23T04:02:53;101235.13;;;15.84;71.94
69624;BME280;56843;52.020;5.670;2022-08-23T04:04:24;101245.03;;;15.80;71.96
69624;BME280;56843;52.020;5.670;2022-08-23T04:06:16;101234.50;;;15.75;72.39
69624;BME280;56843;52.020;5.670;2022-08-23T04:07:47;101244.03;;;15.72;72.54
69624;BME280;56843;52.020;5.670;2022-08-23T04:09:17;101239.81;;;15.71;72.75
69624;BME280;56843;52.020;5.670;2022-08-23T04:10:49;101242.81;;;15.70;72.60
69624;BME280;56843;52.020;5.670;2022-08-23T04:12:19;101248.91;;;15.67;72.86
69624;BME280;56843;52.020;5.670;2022-08-23T04:13:52;101256.56;;;15.65;72.71
69624;BME280;56843;52.020;5.670;2022-08-23T04:15:22;101269.91;;;15.61;72.93
69624;BME280;56843;52.020;5.670;2022-08-23T04:16:53;101260.16;;;15.57;73.17
69624;BME280;56843;52.020;5.670;2022-08-23T04:18:24;101256.25;;;15.54;73.01
69624;BME280;56843;52.020;5.670;2022-08-23T04:19:55;101273.56;;;15.53;73.53
69624;BME280;56843;52.020;5.670;2022-08-23T04:21:26;101266.94;;;15.51;73.38
69624;BME280;56843;52.020;5.670;2022-08-23T04:22:57;101278.06;;;15.49;73.53
69624;BME280;56843;52.020;5.670;2022-08-23T04:24:30;101270.75;;;15.50;73.42
69624;BME280;56843;52.020;5.670;2022-08-23T04:26:01;101264.25;;;15.51;73.58
69624;BME280;56843;52.020;5.670;2022-08-23T04:27:31;101269.72;;;15.54;73.25
69624;BME280;56843;52.020;5.670;2022-08-23T04:29:02;101273.63;;;15.57;73.25
69624;BME280;56843;52.020;5.670;2022-08-23T04:30:33;101267.22;;;15.61;73.17
69624;BME280;56843;52.020;5.670;2022-08-23T04:32:07;101262.38;;;15.67;72.77
69624;BME280;56843;52.020;5.670;2022-08-23T04:33:37;101269.44;;;15.71;72.73
69624;BME280;56843;52.020;5.670;2022-08-23T04:35:08;101264.91;;;15.75;72.57
69624;BME280;56843;52.020;5.670;2022-08-23T04:36:41;101270.72;;;15.77;72.48
69624;BME280;56843;52.020;5.670;2022-08-23T04:38:12;101280.03;;;15.80;72.58
69624;BME280;56843;52.020;5.670;2022-08-23T04:39:42;101276.31;;;15.84;72.33
69624;BME280;56843;52.020;5.670;2022-08-23T04:41:39;101281.69;;;15.84;72.20
69624;BME280;56843;52.020;5.670;2022-08-23T04:43:28;101276.38;;;15.88;72.21
69624;BME280;56843;52.020;5.670;2022-08-23T04:44:59;101274.91;;;15.90;72.09
69624;BME280;56843;52.020;5.670;2022-08-23T04:46:30;101276.13;;;15.93;72.68
69624;BME280;56843;52.020;5.670;2022-08-23T04:48:05;101287.34;;;15.95;72.30
69624;BME280;56843;52.020;5.670;2022-08-23T04:49:35;101280.03;;;15.95;72.24
69624;BME280;56843;52.020;5.670;2022-08-23T04:51:07;101283.50;;;15.96;72.20
69624;BME280;56843;52.020;5.670;2022-08-23T04:52:40;101280.03;;;15.95;72.35
69624;BME280;56843;52.020;5.670;2022-08-23T04:54:10;101273.88;;;15.95;72.23
69624;BME280;56843;52.020;5.670;2022-08-23T04:55:41;101271.19;;;15.95;72.23
69624;BME280;56843;52.020;5.670;2022-08-23T04:57:11;101281.16;;;15.94;72.18
69624;BME280;56843;52.020;5.670;2022-08-23T04:58:43;101286.97;;;15.96;72.38
69624;BME280;56843;52.020;5.670;2022-08-23T05:00:14;101280.47;;;15.97;72.45
69624;BME280;56843;52.020;5.670;2022-08-23T05:01:53;101293.59;;;15.99;72.25
69624;BME280;56843;52.020;5.670;2022-08-23T05:03:24;101285.97;;;16.01;72.70
69624;BME280;56843;52.020;5.670;2022-08-23T05:04:54;101297.19;;;16.03;72.31
69624;BME280;56843;52.020;5.670;2022-08-23T05:06:26;101294.16;;;16.04;72.35
69624;BME280;56843;52.020;5.670;2022-08-23T05:07:56;101298.47;;;16.09;72.32
69624;BME280;56843;52.020;5.670;2022-08-23T05:09:27;101290.50;;;16.12;72.23
69624;BME280;56843;52.020;5.670;2022-08-23T05:11:00;101294.06;;;16.16;71.97
69624;BME280;56843;52.020;5.670;2022-08-23T05:12:30;101303.81;;;16.21;71.81
69624;BME280;56843;52.020;5.670;2022-08-23T05:14:01;101292.41;;;16.28;71.78
69624;BME280;56843;52.020;5.670;2022-08-23T05:15:33;101295.97;;;16.32;71.73
69624;BME280;56843;52.020;5.670;2022-08-23T05:17:08;101295.34;;;16.38;71.48
69624;BME280;56843;52.020;5.670;2022-08-23T05:18:40;101293.25;;;16.47;71.31
69624;BME280;56843;52.020;5.670;2022-08-23T05:20:12;101296.13;;;16.54;71.07
69624;BME280;56843;52.020;5.670;2022-08-23T05:21:42;101288.22;;;16.61;70.82
69624;BME280;56843;52.020;5.670;2022-08-23T05:23:14;101292.97;;;16.68;70.69
69624;BME280;56843;52.020;5.670;2022-08-23T05:24:52;101296.16;;;16.73;70.77
69624;BME280;56843;52.020;5.670;2022-08-23T05:26:23;101294.78;;;16.79;70.48
69624;BME280;56843;52.020;5.670;2022-08-23T05:27:56;101287.97;;;16.85;70.51
69624;BME280;56843;52.020;5.670;2022-08-23T05:29:27;101288.81;;;16.89;70.53
69624;BME280;56843;52.020;5.670;2022-08-23T05:30:59;101285.44;;;16.92;70.36
69624;BME280;56843;52.020;5.670;2022-08-23T05:32:30;101302.94;;;16.99;70.26
69624;BME280;56843;52.020;5.670;2022-08-23T05:34:01;101296.84;;;17.02;70.35
69624;BME280;56843;52.020;5.670;2022-08-23T05:36:02;101303.09;;;17.06;70.27
69624;BME280;56843;52.020;5.670;2022-08-23T05:37:33;101294.72;;;17.11;69.95
69624;BME280;56843;52.020;5.670;2022-08-23T05:39:05;101295.56;;;17.15;70.05
69624;BME280;56843;52.020;5.670;2022-08-23T05:40:37;101304.16;;;17.20;70.07
69624;BME280;56843;52.020;5.670;2022-08-23T05:42:14;101297.00;;;17.28;69.62
69624;BME280;56843;52.020;5.670;2022-08-23T05:43:46;101295.94;;;17.32;69.50
69624;BME280;56843;52.020;5.670;2022-08-23T05:45:17;101303.38;;;17.39;69.37
69624;BME280;56843;52.020;5.670;2022-08-23T05:46:48;101295.75;;;17.44;69.37
69624;BME280;56843;52.020;5.670;2022-08-23T05:48:26;101300.47;;;17.47;69.20
69624;BME280;56843;52.020;5.670;2022-08-23T05:49:59;101306.34;;;17.53;69.09
69624;BME280;56843;52.020;5.670;2022-08-23T05:51:33;101308.75;;;17.58;69.25
69624;BME280;56843;52.020;5.670;2022-08-23T05:53:04;101310.81;;;17.64;68.89
69624;BME280;56843;52.020;5.670;2022-08-23T05:54:36;101307.81;;;17.70;68.60
69624;BME280;56843;52.020;5.670;2022-08-23T05:56:36;101308.03;;;17.80;68.59
69624;BME280;56843;52.020;5.670;2022-08-23T05:58:08;101308.97;;;17.88;68.38
69624;BME280;56843;52.020;5.670;2022-08-23T05:59:38;101310.28;;;17.97;67.98
69624;BME280;56843;52.020;5.670;2022-08-23T06:01:12;101308.53;;;18.08;67.74
69624;BME280;56843;52.020;5.670;2022-08-23T06:02:44;101311.78;;;18.17;67.57
69624;BME280;56843;52.020;5.670;2022-08-23T06:04:15;101310.78;;;18.25;67.56
69624;BME280;56843;52.020;5.670;2022-08-23T06:05:47;101316.28;;;18.32;67.45
69624;BME280;56843;52.020;5.670;2022-08-23T06:07:18;101311.72;;;18.37;66.99
69624;BME280;56843;52.020;5.670;2022-08-23T06:08:48;101314.53;;;18.44;66.92
69624;BME280;56843;52.020;5.670;2022-08-23T06:10:19;101321.22;;;18.50;66.93
69624;BME280;56843;52.020;5.670;2022-08-23T06:11:55;101312.03;;;18.58;66.57
69624;BME280;56843;52.020;5.670;2022-08-23T06:13:28;101321.88;;;18.69;65.90
69624;BME280;56843;52.020;5.670;2022-08-23T06:14:59;101330.19;;;18.80;65.96
69624;BME280;56843;52.020;5.670;2022-08-23T06:16:33;101319.16;;;18.92;65.65
69624;BME280;56843;52.020;5.670;2022-08-23T06:18:04;101328.59;;;19.05;64.86
69624;BME280;56843;52.020;5.670;2022-08-23T06:19:36;101336.50;;;19.17;64.69
69624;BME280;56843;52.020;5.670;2022-08-23T06:21:33;101334.75;;;19.32;63.96
69624;BME280;56843;52.020;5.670;2022-08-23T06:23:07;101328.75;;;19.49;63.53
69624;BME280;56843;52.020;5.670;2022-08-23T06:24:38;101330.09;;;19.62;63.15
69624;BME280;56843;52.020;5.670;2022-08-23T06:26:20;101327.56;;;19.76;62.85
69624;BME280;56843;52.020;5.670;2022-08-23T06:27:52;101321.81;;;19.85;62.85
69624;BME280;56843;52.020;5.670;2022-08-23T06:29:23;101335.06;;;19.93;62.68
69624;BME280;56843;52.020;5.670;2022-08-23T06:31:09;101335.16;;;20.04;62.08
69624;BME280;56843;52.020;5.670;2022-08-23T06:32:45;101338.78;;;20.18;62.22
69624;BME280;56843;52.020;5.670;2022-08-23T06:34:36;101345.56;;;20.35;61.44
69624;BME280;56843;52.020;5.670;2022-08-23T06:36:29;101346.06;;;20.51;61.20
69624;BME280;56843;52.020;5.670;2022-08-23T06:38:10;101341.50;;;20.66;60.87
69624;BME280;56843;52.020;5.670;2022-08-23T06:39:52;101345.47;;;20.75;60.13
69624;BME280;56843;52.020;5.670;2022-08-23T06:41:40;101340.09;;;20.82;60.00
69624;BME280;56843;52.020;5.670;2022-08-23T06:43:43;101339.31;;;20.85;60.34
69624;BME280;56843;52.020;5.670;2022-08-23T06:45:32;101337.78;;;20.88;60.06
69624;BME280;56843;52.020;5.670;2022-08-23T06:47:04;101346.75;;;20.95;59.87
69624;BME280;56843;52.020;5.670;2022-08-23T06:48:35;101339.41;;;21.03;59.69
69624;BME280;56843;52.020;5.670;2022-08-23T06:50:05;101341.84;;;21.15;59.35
69624;BME280;56843;52.020;5.670;2022-08-23T06:51:56;101340.75;;;21.27;59.01
69624;BME280;56843;52.020;5.670;2022-08-23T06:53:56;101334.19;;;21.45;58.60
69624;BME280;56843;52.020;5.670;2022-08-23T06:55:45;101336.94;;;21.56;57.98
69624;BME280;56843;52.020;5.670;2022-08-23T06:57:23;101333.06;;;21.60;58.23
69624;BME280;56843;52.020;5.670;2022-08-23T06:59:29;101334.25;;;21.63;58.01
69624;BME280;56843;52.020;5.670;2022-08-23T07:03:11;101344.41;;;21.73;57.55
69624;BME280;56843;52.020;5.670;2022-08-23T07:05:00;101337.44;;;21.89;56.97
69624;BME280;56843;52.020;5.670;2022-08-23T07:06:49;101334.78;;;22.11;56.91
69624;BME280;56843;52.020;5.670;2022-08-23T07:08:21;101335.53;;;22.29;56.03
69624;BME280;56843;52.020;5.670;2022-08-23T07:09:51;101339.84;;;22.44;55.46
69624;BME280;56843;52.020;5.670;2022-08-23T07:11:24;101342.16;;;22.63;54.99
69624;BME280;56843;52.020;5.670;2022-08-23T07:12:54;101339.78;;;22.83;54.52
69624;BME280;56843;52.020;5.670;2022-08-23T07:14:26;101342.44;;;23.04;54.08
69624;BME280;56843;52.020;5.670;2022-08-23T07:15:59;101345.91;;;23.29;53.40
69624;BME280;56843;52.020;5.670;2022-08-23T07:17:29;101348.13;;;23.55;52.71
69624;BME280;56843;52.020;5.670;2022-08-23T07:19:00;101346.00;;;23.84;51.95
69624;BME280;56843;52.020;5.670;2022-08-23T07:20:30;101344.63;;;24.20;51.21
69624;BME280;56843;52.020;5.670;2022-08-23T07:22:04;101345.47;;;24.54;50.24
69624;BME280;56843;52.020;5.670;2022-08-23T07:23:35;101347.25;;;24.78;49.67
69624;BME280;56843;52.020;5.670;2022-08-23T07:25:09;101339.97;;;25.02;48.93
69624;BME280;56843;52.020;5.670;2022-08-23T07:26:42;101346.38;;;25.19;48.60
69624;BME280;56843;52.020;5.670;2022-08-23T07:28:14;101349.13;;;25.19;48.53
69624;BME280;56843;52.020;5.670;2022-08-23T07:29:46;101348.72;;;25.24;48.31
69624;BME280;56843;52.020;5.670;2022-08-23T07:31:20;101341.59;;;25.30;48.31
69624;BME280;56843;52.020;5.670;2022-08-23T07:32:52;101348.13;;;25.39;48.05
69624;BME280;56843;52.020;5.670;2022-08-23T07:34:27;101346.09;;;25.47;47.70
69624;BME280;56843;52.020;5.670;2022-08-23T07:35:57;101342.47;;;25.53;47.49
69624;BME280;56843;52.020;5.670;2022-08-23T07:37:28;101350.44;;;25.71;46.96
69624;BME280;56843;52.020;5.670;2022-08-23T07:39:00;101344.38;;;25.83;46.68
69624;BME280;56843;52.020;5.670;2022-08-23T07:40:33;101344.50;;;26.03;46.25
69624;BME280;56843;52.020;5.670;2022-08-23T07:42:04;101349.22;;;26.25;45.80
69624;BME280;56843;52.020;5.670;2022-08-23T07:43:35;101353.53;;;26.50;45.62
69624;BME280;56843;52.020;5.670;2022-08-23T07:45:06;101347.63;;;26.74;45.10
69624;BME280;56843;52.020;5.670;2022-08-23T07:46:40;101350.13;;;27.08;44.45
69624;BME280;56843;52.020;5.670;2022-08-23T07:48:12;101356.03;;;27.46;43.50
69624;BME280;56843;52.020;5.670;2022-08-23T07:49:55;101356.28;;;27.87;42.73
69624;BME280;56843;52.020;5.670;2022-08-23T07:51:27;101365.16;;;28.27;41.50
69624;BME280;56843;52.020;5.670;2022-08-23T07:52:59;101376.38;;;28.65;40.65
69624;BME280;56843;52.020;5.670;2022-08-23T07:54:32;101366.00;;;29.01;39.75
69624;BME280;56843;52.020;5.670;2022-08-23T07:56:11;101372.59;;;29.32;39.11
69624;BME280;56843;52.020;5.670;2022-08-23T07:58:00;101373.94;;;29.65;39.00
69624;BME280;56843;52.020;5.670;2022-08-23T07:59:49;101372.69;;;29.95;38.30
69624;BME280;56843;52.020;5.670;2022-08-23T08:01:41;101372.31;;;30.31;37.43
69624;BME280;56843;52.020;5.670;2022-08-23T08:03:13;101371.34;;;30.59;36.80
69624;BME280;56843;52.020;5.670;2022-08-23T08:05:04;101379.41;;;30.88;36.17
69624;BME280;56843;52.020;5.670;2022-08-23T08:06:41;101379.31;;;31.13;35.95
69624;BME280;56843;52.020;5.670;2022-08-23T08:08:12;101384.34;;;31.36;35.24
69624;BME280;56843;52.020;5.670;2022-08-23T08:09:42;101378.06;;;31.57;34.80
69624;BME280;56843;52.020;5.670;2022-08-23T08:11:16;101376.75;;;31.71;34.21
69624;BME280;56843;52.020;5.670;2022-08-23T08:12:47;101379.44;;;31.92;34.02
69624;BME280;56843;52.020;5.670;2022-08-23T08:14:21;101378.47;;;32.17;33.84
69624;BME280;56843;52.020;5.670;2022-08-23T08:15:56;101383.28;;;32.44;32.98
69624;BME280;56843;52.020;5.670;2022-08-23T08:17:30;101387.44;;;32.67;32.60
69624;BME280;56843;52.020;5.670;2022-08-23T08:19:18;101385.75;;;32.96;32.13